Time;durP1;ratioP1;P1;durP2;ratioP2;P2;SDS_P1;SDS_P2;PMS_P1;PMS_P2;Temp;Humidity;BMP_temperature;BMP_pressure;BME280_temperature;BME280_humidity;BME280_pressure;Samples;Min_cycle;Max_cycle;Signal;HPM_P1;HPM_P2
2023/04/23 00:01:26;;;;;;;;;51.50;42.50;;;;;8.56;83.17;99357.81;6278721;20;2859668;-48
2023/04/23 00:03:57;;;;;;;;;46.00;40.00;;;;;8.60;83.50;99363.00;6280907;20;2868974;-52
2023/04/23 00:06:29;;;;;;;;;43.50;39.00;;;;;8.45;83.37;99360.28;6282010;20;2861831;-48
2023/04/23 00:09:00;;;;;;;;;51.67;38.33;;;;;8.30;83.67;99358.44;6280875;20;2879493;-47
2023/04/23 00:11:29;;;;;;;;;53.00;40.50;;;;;8.01;84.94;99360.97;6313673;20;2854496;-45
2023/04/23 00:13:59;;;;;;;;;50.00;41.00;;;;;7.99;85.58;99360.19;6278993;20;2866031;-48
2023/04/23 00:16:28;;;;;;;;;52.50;43.50;;;;;8.04;84.58;99359.94;6282266;20;2863854;-47
2023/04/23 00:18:57;;;;;;;;;44.50;38.00;;;;;7.68;84.97;99359.19;6282969;20;2848266;-48
2023/04/23 00:21:27;;;;;;;;;52.67;40.00;;;;;7.36;86.33;99362.78;6281865;20;2860796;-47
2023/04/23 00:23:57;;;;;;;;;48.67;39.33;;;;;7.28;87.20;99365.00;6314485;20;2870129;-50
2023/04/23 00:26:26;;;;;;;;;53.50;43.00;;;;;7.35;87.51;99361.06;6313460;20;2855476;-52
2023/04/23 00:28:54;;;;;;;;;43.00;37.50;;;;;7.67;86.69;99352.16;6284344;20;2863844;-51
2023/04/23 00:31:25;;;;;;;;;45.00;39.50;;;;;8.08;85.70;99351.66;6281852;20;2863823;-49
2023/04/23 00:33:55;;;;;;;;;51.33;40.00;;;;;8.32;83.74;99356.53;6283039;20;2872184;-48
2023/04/23 00:36:25;;;;;;;;;43.50;40.00;;;;;8.38;84.00;99353.50;6313426;20;2856588;-48
2023/04/23 00:38:54;;;;;;;;;48.00;41.00;;;;;8.47;83.72;99353.00;6284174;20;2861836;-48
2023/04/23 00:41:27;;;;;;;;;57.67;43.67;;;;;8.47;83.87;99354.81;6312752;20;3629531;-50
2023/04/23 00:43:57;;;;;;;;;49.00;41.33;;;;;8.59;83.64;99353.25;6314207;20;2870058;-50
2023/04/23 00:46:26;;;;;;;;;55.00;43.50;;;;;8.60;82.80;99349.59;6313287;20;2856506;-50
2023/04/23 00:48:55;;;;;;;;;42.00;37.00;;;;;8.61;82.18;99344.19;6282304;20;2860699;-54
2023/04/23 00:51:25;;;;;;;;;45.33;39.00;;;;;8.78;81.55;99345.84;6282888;20;2860680;-50
2023/04/23 00:53:55;;;;;;;;;44.50;38.50;;;;;8.49;82.75;99345.75;6314059;20;2849274;-48
2023/04/23 00:56:24;;;;;;;;;50.50;42.50;;;;;8.35;84.65;99343.84;6283427;20;2853431;-50
2023/04/23 00:58:54;;;;;;;;;50.00;40.50;;;;;8.57;82.55;99338.13;6280590;20;2862774;-48
2023/04/23 01:01:25;;;;;;;;;51.00;39.67;;;;;8.67;82.59;99338.47;6279455;20;3627417;-50
2023/04/23 01:03:55;;;;;;;;;54.00;40.00;;;;;8.86;81.24;99343.56;6315228;20;2858623;-47
2023/04/23 01:06:24;;;;;;;;;44.00;39.00;;;;;8.82;81.23;99342.03;6279237;20;2837900;-51
2023/04/23 01:08:53;;;;;;;;;44.00;39.50;;;;;8.56;82.82;99339.09;6280872;20;2858612;-48
2023/04/23 01:11:23;;;;;;;;;48.33;39.00;;;;;8.44;82.90;99350.50;6280399;20;3619074;-51
2023/04/23 01:13:55;;;;;;;;;51.33;40.67;;;;;8.49;83.24;99353.78;6314354;20;2875362;-48
2023/04/23 01:16:24;;;;;;;;;47.00;36.67;;;;;7.46;87.30;99359.50;6309323;20;3620029;-51
2023/04/23 01:18:55;;;;;;;;;37.50;34.50;;;;;7.42;86.00;99352.59;6312341;20;2863839;-49
2023/04/23 01:21:25;;;;;;;;;41.00;37.33;;;;;7.56;86.63;99353.69;6278037;20;2865983;-48
2023/04/23 01:23:54;;;;;;;;;42.33;38.00;;;;;7.83;85.30;99353.97;6311188;20;3604484;-49
2023/04/23 01:26:24;;;;;;;;;47.00;37.50;;;;;7.74;85.75;99357.13;6280570;20;2867990;-47
2023/04/23 01:28:53;;;;;;;;;47.67;38.33;;;;;7.77;86.90;99357.00;6283317;20;3600273;-49
2023/04/23 01:31:23;;;;;;;;;47.50;40.00;;;;;8.22;85.39;99344.66;6277069;20;2862912;-51
2023/04/23 01:33:56;;;;;;;;;49.00;39.00;;;;;8.51;83.95;99359.06;6282597;20;2858725;-53
2023/04/23 01:36:25;;;;;;;;;46.50;39.00;;;;;8.42;84.49;99349.72;6278643;20;2859647;-50
2023/04/23 01:38:54;;;;;;;;;46.00;38.50;;;;;8.45;84.10;99341.53;6279506;20;2862780;-51
2023/04/23 01:41:24;;;;;;;;;43.00;36.00;;;;;8.33;85.70;99344.88;6281260;20;2869148;-48
2023/04/23 01:43:54;;;;;;;;;46.50;39.00;;;;;8.52;85.29;99350.91;6309538;20;2855498;-51
2023/04/23 01:46:23;;;;;;;;;42.50;38.00;;;;;8.66;83.99;99336.75;6279513;20;2869036;-47
2023/04/23 01:48:52;;;;;;;;;35.50;34.00;;;;;8.40;85.09;99340.94;6283178;20;2860709;-49
2023/04/23 01:51:24;;;;;;;;;41.00;36.00;;;;;8.33;84.55;99331.50;6279441;20;3605483;-48
2023/04/23 01:53:53;;;;;;;;;44.50;38.50;;;;;8.52;84.48;99332.19;6316721;20;2865908;-47
2023/04/23 01:56:27;;;;;;;;;37.33;34.00;;;;;8.05;85.76;99338.44;6283923;20;3580491;-50
2023/04/23 01:58:56;;;;;;;;;41.33;37.00;;;;;7.91;87.39;99338.38;6315573;20;3606498;-50
2023/04/23 02:01:25;;;;;;;;;45.00;39.00;;;;;7.82;87.94;99338.88;6281945;20;2863846;-47
2023/04/23 02:03:55;;;;;;;;;48.33;37.67;;;;;7.39;89.13;99341.22;6281512;20;3629427;-48
2023/04/23 02:06:23;;;;;;;;;37.33;33.00;;;;;7.62;88.42;99340.84;6315942;20;3586741;-48
2023/04/23 02:08:52;;;;;;;;;48.67;39.67;;;;;7.23;89.76;99346.53;6315532;20;3606511;-49
2023/04/23 02:11:22;;;;;;;;;62.33;48.67;;;;;7.35;90.11;99337.03;6282934;20;2855481;-47
2023/04/23 02:13:51;;;;;;;;;56.00;46.00;;;;;6.93;90.06;99333.03;6311942;20;2856535;-49
2023/04/23 02:16:19;;;;;;;;;42.00;38.00;;;;;7.45;88.92;99339.09;6277934;20;2872233;-53
2023/04/23 02:18:48;;;;;;;;;40.50;37.50;;;;;7.18;90.52;99327.22;6281726;20;2847301;-55
2023/04/23 02:21:17;;;;;;;;;42.50;36.50;;;;;7.09;90.19;99333.94;6280854;20;2834703;-53
2023/04/23 02:23:46;;;;;;;;;49.50;40.00;;;;;7.08;91.35;99332.19;6278831;20;2850386;-50
2023/04/23 02:26:15;;;;;;;;;53.00;41.50;;;;;7.00;92.73;99329.06;6280484;20;2864848;-49
2023/04/23 02:28:45;;;;;;;;;47.67;38.67;;;;;6.92;92.30;99332.13;6280148;20;2867045;-48
2023/04/23 02:31:15;;;;;;;;;48.00;39.50;;;;;6.95;92.53;99332.00;6311107;20;2856622;-47
2023/04/23 02:33:45;;;;;;;;;52.50;42.00;;;;;6.93;92.54;99331.19;6281755;20;2844164;-49
2023/04/23 02:36:15;;;;;;;;;41.50;37.00;;;;;6.61;93.96;99327.53;6281373;20;2869023;-51
2023/04/23 02:38:46;;;;;;;;;44.00;37.00;;;;;6.82;93.46;99322.91;6283996;20;3610676;-47
2023/04/23 02:41:16;;;;;;;;;46.33;36.67;;;;;6.87;93.25;99323.50;6312142;20;3613838;-47
2023/04/23 02:43:45;;;;;;;;;49.33;39.33;;;;;6.80;93.65;99328.31;6308997;20;2862795;-50
2023/04/23 02:46:14;;;;;;;;;39.00;35.00;;;;;6.79;93.58;99325.72;6309819;20;2851524;-49
2023/04/23 02:48:43;;;;;;;;;41.00;34.00;;;;;6.59;93.01;99326.75;6279783;20;2862900;-47
2023/04/23 02:51:13;;;;;;;;;47.00;35.67;;;;;6.80;92.85;99322.13;6278990;20;3623187;-48
2023/04/23 02:53:42;;;;;;;;;40.67;36.00;;;;;6.78;93.16;99322.19;6313933;20;3618072;-46
2023/04/23 02:56:11;;;;;;;;;40.00;34.00;;;;;6.87;91.76;99326.16;6281268;20;2860689;-49
2023/04/23 02:58:40;;;;;;;;;41.00;35.67;;;;;6.80;92.75;99322.97;6279890;20;2869111;-47
2023/04/23 03:01:10;;;;;;;;;40.33;36.00;;;;;6.79;93.10;99325.72;6311782;20;2852538;-46
2023/04/23 03:03:39;;;;;;;;;35.00;34.00;;;;;6.91;92.47;99319.75;6311261;20;2850399;-46
2023/04/23 03:06:09;;;;;;;;;43.00;36.67;;;;;6.69;92.56;99317.34;6278176;20;2865933;-49
2023/04/23 03:08:39;;;;;;;;;42.33;34.67;;;;;6.96;92.66;99312.34;6311265;20;2879437;-49
2023/04/23 03:11:08;;;;;;;;;37.50;35.00;;;;;6.80;91.77;99312.31;6309051;20;2858720;-47
2023/04/23 03:13:37;;;;;;;;;39.00;34.00;;;;;6.92;92.18;99316.13;6280579;20;2850391;-47
2023/04/23 03:16:06;;;;;;;;;40.50;34.50;;;;;6.92;92.83;99309.91;6277855;20;2852357;-48
2023/04/23 03:18:35;;;;;;;;;37.00;34.50;;;;;7.04;91.99;99314.63;6280693;20;2848162;-46
2023/04/23 03:21:04;;;;;;;;;35.50;32.50;;;;;7.03;91.74;99313.75;6274743;20;2846208;-49
2023/04/23 03:23:35;;;;;;;;;37.33;33.33;;;;;6.94;91.18;99313.38;6280810;20;2863956;-46
2023/04/23 03:26:05;;;;;;;;;39.67;35.00;;;;;6.58;92.68;99311.66;6309910;20;2852480;-46
2023/04/23 03:28:34;;;;;;;;;40.00;36.50;;;;;6.30;94.75;99307.75;6310711;20;2861757;-49
2023/04/23 03:31:03;;;;;;;;;39.00;35.00;;;;;6.25;95.31;99320.44;6280848;20;2857760;-46
2023/04/23 03:33:32;;;;;;;;;47.67;38.00;;;;;6.21;95.54;99316.19;6280092;20;2866947;-45
2023/04/23 03:36:02;;;;;;;;;55.50;45.00;;;;;6.15;95.09;99319.16;6309110;20;2858701;-46
2023/04/23 03:38:31;;;;;;;;;59.50;48.50;;;;;6.47;93.04;99322.03;6275527;20;2857598;-48
2023/04/23 03:41:00;;;;;;;;;54.00;45.00;;;;;6.37;93.71;99311.84;6279512;20;2858643;-47
2023/04/23 03:43:28;;;;;;;;;53.50;44.00;;;;;6.43;94.56;99312.47;6277897;20;2852487;-47
2023/04/23 03:45:57;;;;;;;;;46.00;38.50;;;;;6.41;94.25;99314.34;6280804;20;2862810;-45
2023/04/23 03:48:25;;;;;;;;;47.00;37.00;;;;;6.11;94.90;99322.94;6275943;20;2487753;-47
2023/04/23 03:50:54;;;;;;;;;51.50;42.50;;;;;6.04;95.03;99317.03;6277219;20;2856542;-46
2023/04/23 03:53:22;;;;;;;;;49.50;41.00;;;;;6.05;95.61;99323.22;6273131;20;2495077;-50
2023/04/23 03:55:52;;;;;;;;;52.00;39.00;;;;;6.03;95.33;99325.09;6274927;20;2884740;-49
2023/04/23 03:58:20;;;;;;;;;57.00;44.50;;;;;5.97;95.65;99325.41;6309227;20;2869021;-49
2023/04/23 04:00:48;;;;;;;;;50.50;41.00;;;;;6.18;94.62;99319.00;6274941;20;2495133;-49
2023/04/23 04:03:18;;;;;;;;;46.33;37.67;;;;;6.07;94.83;99329.34;6277154;20;2865057;-48
2023/04/23 04:05:48;;;;;;;;;48.00;37.00;;;;;6.31;94.87;99325.47;6306786;20;2881760;-47
2023/04/23 04:08:17;;;;;;;;;41.67;37.00;;;;;6.59;93.42;99332.94;6308561;20;2868044;-50
2023/04/23 04:10:46;;;;;;;;;36.50;34.50;;;;;6.37;93.89;99327.84;6309188;20;2856574;-51
2023/04/23 04:13:16;;;;;;;;;37.33;34.00;;;;;6.49;93.29;99328.16;6278212;20;2864006;-47
2023/04/23 04:15:45;;;;;;;;;38.33;34.00;;;;;6.43;93.24;99329.34;6307764;20;2855582;-48
2023/04/23 04:18:15;;;;;;;;;36.50;34.00;;;;;6.55;92.43;99334.03;6313613;20;2846194;-49
2023/04/23 04:20:44;;;;;;;;;37.50;33.00;;;;;6.27;93.43;99333.72;6278658;20;2858656;-49
2023/04/23 04:23:13;;;;;;;;;28.50;27.50;;;;;6.45;92.64;99331.91;6309442;20;2842038;-46
2023/04/23 04:25:42;;;;;;;;;36.00;33.50;;;;;6.28;91.95;99333.63;6276603;20;2852423;-47
2023/04/23 04:28:11;;;;;;;;;36.67;32.33;;;;;6.68;91.22;99338.75;6278641;20;2876610;-48
2023/04/23 04:30:41;;;;;;;;;37.00;33.50;;;;;6.61;91.32;99338.22;6310559;20;2852404;-49
2023/04/23 04:33:10;;;;;;;;;35.00;31.50;;;;;7.00;90.75;99343.28;6278258;20;2841983;-48
2023/04/23 04:35:40;;;;;;;;;34.67;30.00;;;;;9.72;79.32;99349.00;6279739;20;2866943;-50
2023/04/23 04:38:09;;;;;;;;;37.00;34.00;;;;;10.48;75.94;99350.38;6308142;20;2856657;-45
2023/04/23 04:40:39;;;;;;;;;56.67;42.67;;;;;13.00;62.79;99361.94;6277417;20;2880614;-48
2023/04/23 04:43:09;;;;;;;;;35.67;31.67;;;;;12.51;59.45;99367.38;6312057;20;3590975;-46
2023/04/23 04:45:38;;;;;;;;;31.00;26.00;;;;;10.66;66.38;99367.91;6277026;20;2869202;-47
2023/04/23 04:48:08;;;;;;;;;33.33;27.00;;;;;11.12;67.49;99367.47;6309966;20;3598924;-51
2023/04/23 04:50:37;;;;;;;;;31.00;28.33;;;;;11.50;65.44;99371.13;6318097;20;3587792;-49
2023/04/23 04:53:05;;;;;;;;;31.00;31.00;;;;;10.23;71.41;99361.81;6280522;20;2851337;-49
2023/04/23 04:55:35;;;;;;;;;36.33;28.33;;;;;10.44;73.67;99367.63;6281798;20;3628366;-50
2023/04/23 04:58:04;;;;;;;;;40.67;33.00;;;;;11.18;69.04;99368.88;6317063;20;3616956;-49
2023/04/23 05:00:33;;;;;;;;;35.67;33.33;;;;;10.74;70.64;99365.59;6284209;20;3600329;-47
2023/04/23 05:03:02;;;;;;;;;35.00;34.00;;;;;10.03;74.77;99363.09;6280761;20;2851406;-49
2023/04/23 05:05:32;;;;;;;;;30.50;30.00;;;;;10.57;73.72;99365.84;6278689;20;2839986;-47
2023/04/23 05:08:02;;;;;;;;;42.00;33.67;;;;;11.26;69.85;99365.66;6282487;20;3611845;-50
2023/04/23 05:10:31;;;;;;;;;33.00;30.33;;;;;12.23;66.75;99368.56;6316934;20;3582569;-50
2023/04/23 05:13:00;;;;;;;;;31.67;30.00;;;;;13.71;59.61;99373.50;6280349;20;2850304;-49
2023/04/23 05:15:29;;;;;;;;;33.00;30.50;;;;;14.16;56.34;99374.31;6314276;20;2848233;-51
2023/04/23 05:17:58;;;;;;;;;34.00;30.33;;;;;14.09;57.39;99377.66;6283196;20;3595050;-48
2023/04/23 05:20:27;;;;;;;;;35.00;32.00;;;;;13.48;57.89;99378.00;6277928;20;2847331;-47
2023/04/23 05:22:58;;;;;;;;;36.67;32.00;;;;;12.69;61.71;99369.66;6315221;20;3608644;-46
2023/04/23 05:25:30;;;;;;;;;38.67;34.00;;;;;11.90;66.20;99377.28;6284477;20;3602318;-48
2023/04/23 05:28:00;;;;;;;;;34.67;32.33;;;;;12.57;65.90;99368.75;6282441;20;2861604;-50
2023/04/23 05:30:29;;;;;;;;;39.00;32.00;;;;;13.84;61.23;99366.97;6315267;20;3611710;-52
2023/04/23 05:32:59;;;;;;;;;42.67;35.00;;;;;13.63;60.96;99366.00;6282889;20;2862938;-50
2023/04/23 05:35:28;;;;;;;;;37.50;34.50;;;;;14.60;55.69;99371.69;6312447;20;2856519;-50
2023/04/23 05:37:57;;;;;;;;;40.00;35.00;;;;;13.96;56.82;99372.41;6280112;20;2852405;-50
2023/04/23 05:40:26;;;;;;;;;40.00;34.00;;;;;13.35;62.33;99378.97;6282874;20;3614968;-52
2023/04/23 05:42:58;;;;;;;;;34.67;31.00;;;;;15.58;53.42;99385.78;6314018;20;3584629;-52
2023/04/23 05:45:27;;;;;;;;;37.00;32.00;;;;;15.76;50.90;99388.75;6280957;20;2855554;-52
2023/04/23 05:47:56;;;;;;;;;38.33;33.33;;;;;16.32;50.20;99389.25;6314933;20;3602375;-55
2023/04/23 05:50:25;;;;;;;;;36.67;30.00;;;;;15.98;51.23;99387.75;6282422;20;3601289;-51
2023/04/23 05:52:54;;;;;;;;;39.33;33.67;;;;;15.95;49.75;99384.44;6285982;20;3607562;-52
2023/04/23 05:55:23;;;;;;;;;33.00;30.33;;;;;16.29;48.93;99384.97;6282427;20;3597158;-52
2023/04/23 05:57:52;;;;;;;;;36.67;32.33;;;;;15.08;52.99;99382.88;6281976;20;2858779;-53
2023/04/23 06:00:21;;;;;;;;;36.33;32.00;;;;;15.20;54.77;99382.84;6315273;20;3601372;-52
2023/04/23 06:02:50;;;;;;;;;35.33;31.33;;;;;14.57;57.34;99388.16;6284980;20;3603545;-54
2023/04/23 06:05:20;;;;;;;;;60.67;50.00;;;;;15.68;51.86;99395.81;6281535;20;3614917;-51
2023/04/23 06:07:49;;;;;;;;;40.33;36.00;;;;;15.54;54.11;99397.88;6316513;20;3603389;-54
2023/04/23 06:10:18;;;;;;;;;38.67;31.67;;;;;15.63;54.46;99398.06;6284139;20;3600344;-50
2023/04/23 06:12:48;;;;;;;;;39.33;34.00;;;;;15.23;56.55;99393.41;6284609;20;2854471;-52
2023/04/23 06:15:16;;;;;;;;;36.33;33.00;;;;;14.76;58.26;99398.28;6318447;20;3604423;-52
2023/04/23 06:17:46;;;;;;;;;33.00;31.00;;;;;15.27;57.07;99386.72;6285667;20;2855547;-51
2023/04/23 06:20:15;;;;;;;;;37.67;33.67;;;;;15.37;55.29;99391.22;6315654;20;3605501;-50
2023/04/23 06:22:44;;;;;;;;;38.67;34.33;;;;;16.07;54.68;99385.22;6287293;20;3605563;-49
2023/04/23 06:25:12;;;;;;;;;40.33;33.33;;;;;15.70;57.01;99386.59;6285407;20;3616956;-49
2023/04/23 06:27:41;;;;;;;;;34.67;30.67;;;;;15.72;55.41;99402.72;6289295;20;3597133;-52
2023/04/23 06:30:11;;;;;;;;;33.33;31.00;;;;;17.10;53.06;99404.66;6281619;20;3599229;-53
2023/04/23 06:32:39;;;;;;;;;28.33;28.33;;;;;19.30;46.68;99405.88;6285558;20;3593997;-53
2023/04/23 06:35:09;;;;;;;;;31.00;29.67;;;;;19.79;45.44;99413.56;6282614;20;3591977;-52
2023/04/23 06:37:37;;;;;;;;;28.00;26.67;;;;;18.03;45.23;99404.94;6286229;20;3595059;-51
2023/04/23 06:40:07;;;;;;;;;24.00;21.67;;;;;20.26;38.79;99415.03;6284759;20;3583649;-53
2023/04/23 06:42:35;;;;;;;;;28.00;25.33;;;;;23.05;33.80;99412.97;6285531;20;3586764;-53
2023/04/23 06:45:05;;;;;;;;;22.00;22.00;;;;;25.68;28.34;99423.41;6284490;20;3581530;-55
2023/04/23 06:47:35;;;;;;;;;25.00;22.00;;;;;25.91;29.08;99425.97;6285285;20;3578366;-50
2023/04/23 06:50:05;;;;;;;;;28.67;25.00;;;;;26.95;27.92;99429.72;6318351;20;3602386;-47
2023/04/23 06:52:34;;;;;;;;;26.33;20.00;;;;;27.14;26.45;99438.03;6286200;20;3596159;-48
2023/04/23 06:55:04;;;;;;;;;22.67;20.00;;;;;26.33;30.43;99426.88;6284285;20;3576338;-52
2023/04/23 06:57:33;;;;;;;;;26.00;24.67;;;;;26.95;28.91;99425.06;6288725;20;3602379;-50
2023/04/23 07:00:04;;;;;;;;;24.33;24.33;;;;;27.26;28.38;99423.69;6282971;20;3586784;-50
2023/04/23 07:02:33;;;;;;;;;25.33;24.33;;;;;27.30;28.36;99425.78;6283896;20;3587787;-47
2023/04/23 07:05:03;;;;;;;;;24.33;23.00;;;;;29.14;26.35;99435.09;6273390;20;3594120;-51
2023/04/23 07:07:31;;;;;;;;;20.00;20.00;;;;;27.85;26.68;99431.16;6285141;20;3577367;-51
2023/04/23 07:10:00;;;;;;;;;18.67;18.67;;;;;27.52;26.95;99425.63;6286530;20;3575342;-53
2023/04/23 07:12:29;;;;;;;;;19.33;19.33;;;;;28.62;26.28;99440.63;6284064;20;3570582;-51
2023/04/23 07:14:57;;;;;;;;;22.00;20.00;;;;;27.46;27.65;99434.72;6287938;20;3573181;-44
2023/04/23 07:17:26;;;;;;;;;21.67;20.33;;;;;27.51;27.61;99429.44;6286904;20;3587714;-54
2023/04/23 07:19:55;;;;;;;;;21.67;21.67;;;;;27.40;27.81;99438.34;6284047;20;3587853;-48
2023/04/23 07:22:25;;;;;;;;;28.25;22.25;;;;;27.83;27.20;99443.47;6285144;20;3598625;-50
2023/04/23 07:24:57;;;;;;;;;21.33;19.00;;;;;27.85;28.36;99438.59;6312690;20;3574210;-50
2023/04/23 07:27:26;;;;;;;;;17.00;17.00;;;;;28.92;25.10;99442.84;6287108;20;3562843;-52
2023/04/23 07:29:55;;;;;;;;;22.33;21.33;;;;;24.77;29.76;99430.47;6282213;20;3579601;-51
2023/04/23 07:32:26;;;;;;;;;21.00;20.33;;;;;22.44;34.37;99410.88;6280675;20;2838955;-53
2023/04/23 07:34:56;;;;;;;;;22.00;20.67;;;;;21.93;36.17;99418.53;6313821;20;3583639;-52
2023/04/23 07:37:25;;;;;;;;;20.67;19.00;;;;;21.34;37.03;99413.25;6280269;20;3550297;-54
2023/04/23 07:39:53;;;;;;;;;19.67;19.00;;;;;21.63;38.29;99411.91;6282832;20;3565919;-49
2023/04/23 07:42:22;;;;;;;;;20.00;20.00;;;;;21.67;37.91;99418.75;6282110;20;3569062;-50
2023/04/23 07:44:51;;;;;;;;;21.67;21.67;;;;;21.89;37.50;99417.19;6281152;20;3579373;-51
2023/04/23 07:47:20;;;;;;;;;18.00;16.00;;;;;21.36;34.73;99404.91;6284450;20;3558679;-53
2023/04/23 07:49:49;;;;;;;;;18.00;18.00;;;;;21.13;37.21;99412.91;6280869;20;2833642;-54
2023/04/23 07:52:17;;;;;;;;;13.00;11.00;;;;;21.07;36.02;99410.88;6288632;20;2784654;-55
2023/04/23 07:54:46;;;;;;;;;17.00;17.00;;;;;21.55;36.11;99409.19;6284690;20;2827513;-54
2023/04/23 07:57:15;;;;;;;;;18.00;16.00;;;;;21.64;35.37;99408.16;6278163;20;2825301;-50
2023/04/23 07:59:43;;;;;;;;;17.00;17.00;;;;;22.84;34.86;99405.38;6281094;20;2829507;-54
2023/04/23 08:02:12;;;;;;;;;18.67;18.67;;;;;22.03;34.91;99405.50;6284083;20;3558629;-54
2023/04/23 08:04:41;;;;;;;;;18.00;18.00;;;;;22.42;34.97;99396.53;6278326;20;2830458;-51
2023/04/23 08:07:10;;;;;;;;;20.00;15.00;;;;;22.82;33.96;99401.97;6285127;20;3545076;-49
2023/04/23 08:09:41;;;;;;;;;18.00;18.00;;;;;21.96;34.24;99401.78;6275677;20;2834752;-50
2023/04/23 08:12:10;;;;;;;;;15.00;15.00;;;;;22.27;33.39;99407.34;6312616;20;3538176;-54
2023/04/23 08:14:38;;;;;;;;;15.00;15.00;;;;;22.30;32.75;99406.13;6313080;20;2793140;-47
2023/04/23 08:17:07;;;;;;;;;15.00;15.00;;;;;22.38;32.18;99403.41;6277862;20;2815921;-52
2023/04/23 08:19:36;;;;;;;;;17.67;16.00;;;;;23.00;32.43;99406.13;6284243;20;3558572;-53
2023/04/23 08:22:04;;;;;;;;;14.50;14.00;;;;;22.37;31.88;99409.88;6280503;20;2812865;-49
2023/04/23 08:24:33;;;;;;;;;12.67;12.67;;;;;21.61;33.01;99403.88;6282011;20;3536087;-49
2023/04/23 08:27:02;;;;;;;;;20.00;17.00;;;;;21.90;32.93;99403.31;6288784;20;3565961;-49
2023/04/23 08:29:31;;;;;;;;;15.50;15.00;;;;;22.71;31.96;99406.81;6285452;20;2810698;-50
2023/04/23 08:32:02;;;;;;;;;14.00;13.00;;;;;22.71;30.66;99400.47;6289368;20;2810751;-48
2023/04/23 08:34:31;;;;;;;;;14.67;14.67;;;;;23.06;30.67;99401.81;6283028;20;3541178;-51
2023/04/23 08:37:03;;;;;;;;;11.00;11.00;;;;;22.53;31.50;99404.31;6301640;20;3519120;-51
2023/04/23 08:39:34;;;;;;;;;14.00;14.00;;;;;22.66;33.01;99402.91;6318309;20;3541954;-49
2023/04/23 08:42:22;;;;;;;;;18.33;16.00;;;;;22.18;32.36;99399.34;6322068;20;3569049;-51
2023/04/23 08:44:52;;;;;;;;;12.67;12.67;;;;;22.62;30.97;99405.16;6283859;20;3531600;-49
2023/04/23 08:47:24;;;;;;;;;12.00;11.33;;;;;23.05;30.61;99402.03;6282576;20;3520177;-49
2023/04/23 08:49:54;;;;;;;;;15.67;14.33;;;;;22.65;29.85;99402.06;6313211;20;3530574;-50
2023/04/23 08:52:27;;;;;;;;;16.67;16.33;;;;;22.52;30.75;99390.84;6283545;20;3552376;-51
2023/04/23 08:55:01;;;;;;;;;15.67;14.67;;;;;23.32;30.76;99397.88;6285590;20;3526351;-55
2023/04/23 08:57:30;;;;;;;;;9.00;7.00;;;;;22.81;28.55;99389.31;6281155;20;2742446;-55
2023/04/23 09:00:06;;;;;;;;;15.50;14.00;;;;;22.16;30.83;99393.19;6314769;20;2814965;-55
2023/04/23 09:02:43;;;;;;;;;9.67;9.67;;;;;23.26;28.73;99401.34;6285820;20;2781638;-52
2023/04/23 09:05:14;;;;;;;;;13.67;12.67;;;;;23.33;29.71;99396.81;6315993;20;3534790;-52
2023/04/23 09:07:43;;;;;;;;;12.67;11.33;;;;;23.18;28.58;99392.16;6318859;20;3510752;-53
2023/04/23 09:10:14;;;;;;;;;17.67;16.67;;;;;23.69;30.61;99385.19;6320543;20;3569099;-51
2023/04/23 09:12:46;;;;;;;;;16.00;16.00;;;;;23.58;30.26;99381.03;6286175;20;2827328;-56
2023/04/23 09:15:16;;;;;;;;;16.67;16.67;;;;;23.61;29.85;99380.66;6284680;20;3560693;-54
2023/04/23 09:17:48;;;;;;;;;16.00;16.00;;;;;23.59;29.88;99382.72;6314251;20;2826381;-49
2023/04/23 09:20:17;;;;;;;;;16.00;15.00;;;;;23.65;29.22;99382.00;6281832;20;2818006;-49
2023/04/23 09:22:48;;;;;;;;;14.67;14.67;;;;;24.31;29.45;99382.16;6284682;20;3520069;-52
2023/04/23 09:25:20;;;;;;;;;18.67;17.00;;;;;23.48;30.43;99369.47;6314651;20;3556534;-54
2023/04/23 09:27:51;;;;;;;;;21.00;20.00;;;;;23.58;31.69;99378.28;6317703;20;2838794;-52
2023/04/23 09:30:20;;;;;;;;;16.00;15.50;;;;;23.63;30.42;99373.09;6291251;20;2487704;-49
2023/04/23 09:32:49;;;;;;;;;13.67;13.67;;;;;24.30;29.43;99380.44;6313979;20;2483642;-52
2023/04/23 09:35:19;;;;;;;;;18.50;17.50;;;;;23.59;29.71;99366.28;6310942;20;3436796;-46
2023/04/23 09:37:52;;;;;;;;;18.00;17.00;;;;;23.82;30.19;99372.56;6313401;20;2827452;-49
2023/04/23 09:40:23;;;;;;;;;16.00;16.00;;;;;24.29;29.45;99371.34;6285472;20;2500239;-50
2023/04/23 09:42:53;;;;;;;;;18.00;15.67;;;;;23.79;30.31;99362.00;6318583;20;3552425;-47
2023/04/23 09:45:24;;;;;;;;;17.00;17.00;;;;;23.07;30.17;99367.09;6285213;20;3567057;-49
2023/04/23 09:47:56;;;;;;;;;12.33;12.33;;;;;24.05;30.59;99367.00;6281573;20;3530590;-48
2023/04/23 09:50:37;;;;;;;;;15.00;15.00;;;;;23.68;29.17;99365.16;6319582;20;2487811;-50
2023/04/23 09:53:08;;;;;;;;;15.33;15.00;;;;;24.58;29.62;99375.13;6308768;20;2483736;-47
2023/04/23 09:55:41;;;;;;;;;18.00;18.00;;;;;23.90;28.71;99373.53;6315040;20;3576414;-48
2023/04/23 09:58:15;;;;;;;;;16.67;14.00;;;;;23.98;28.74;99359.72;6284934;20;3550676;-48
2023/04/23 10:00:43;;;;;;;;;15.00;15.00;;;;;23.94;28.33;99361.16;6319391;20;3548266;-51
2023/04/23 10:03:12;;;;;;;;;15.67;15.67;;;;;24.43;26.85;99368.78;6319155;20;3551299;-50
2023/04/23 10:05:42;;;;;;;;;13.00;13.00;;;;;23.62;26.77;99361.28;6318391;20;3514843;-51
2023/04/23 10:08:16;;;;;;;;;6.80;6.80;;;;;23.59;26.84;99356.19;6341548;20;2739835;-50
2023/04/23 10:10:47;;;;;;;;;12.50;12.50;;;;;23.95;27.19;99347.25;6313349;20;2805551;-51
2023/04/23 10:13:27;;;;;;;;;14.33;12.67;;;;;24.72;26.61;99345.91;6275193;20;3526375;-47
2023/04/23 10:15:56;;;;;;;;;13.00;13.00;;;;;24.52;27.20;99345.72;6282955;20;2483677;-53
2023/04/23 10:18:36;;;;;;;;;9.00;9.00;;;;;24.09;23.66;99342.78;6311831;20;3476344;-50
2023/04/23 10:21:06;;;;;;;;;13.67;12.33;;;;;23.79;26.24;99341.97;6312462;20;2489873;-51
2023/04/23 10:23:35;;;;;;;;;9.00;9.00;;;;;24.87;24.63;99341.22;6310562;20;3465926;-53
2023/04/23 10:26:05;;;;;;;;;8.00;8.00;;;;;24.57;24.27;99337.75;6321629;20;2737814;-51
2023/04/23 10:28:35;;;;;;;;;11.67;11.67;;;;;24.67;24.04;99335.53;6307120;20;3510901;-52
2023/04/23 10:31:05;;;;;;;;;13.00;11.00;;;;;24.92;25.22;99337.91;6283898;20;2798419;-52
2023/04/23 10:33:34;;;;;;;;;10.00;7.00;;;;;24.67;24.09;99341.03;6315430;20;2749338;-52
2023/04/23 10:36:24;;;;;;;;;8.33;8.33;;;;;24.80;22.43;99337.56;6321278;20;2754480;-52
2023/04/23 10:38:55;;;;;;;;;12.67;11.67;;;;;24.71;24.67;99327.75;6311361;20;2793497;-51
2023/04/23 10:41:38;;;;;;;;;10.00;9.80;;;;;24.80;22.20;99332.06;6340177;20;2795069;-52
2023/04/23 10:44:12;;;;;;;;;11.33;9.67;;;;;24.79;23.64;99324.03;6277037;20;3511735;-52
2023/04/23 10:46:59;;;;;;;;;12.67;9.33;;;;;24.36;23.61;99318.47;6312113;20;2779588;-50
2023/04/23 10:49:33;;;;;;;;;9.00;9.00;;;;;24.13;24.47;99315.84;6311338;20;3482535;-52
2023/04/23 10:52:07;;;;;;;;;9.67;8.67;;;;;24.36;23.60;99312.97;6315394;20;2767984;-51
2023/04/23 10:55:00;;;;;;;;;10.00;9.00;;;;;24.45;24.37;99314.59;6311824;20;3489889;-48
2023/04/23 10:57:29;;;;;;;;;10.67;10.67;;;;;24.51;24.14;99311.06;6314262;20;3504409;-49
2023/04/23 11:00:03;;;;;;;;;9.33;8.33;;;;;24.68;23.48;99318.00;6315363;20;3477432;-50
2023/04/23 11:02:43;;;;;;;;;10.00;10.00;;;;;23.82;24.01;99312.25;6312053;20;3515872;-55
2023/04/23 11:05:14;;;;;;;;;12.33;9.67;;;;;24.49;24.93;99314.00;6314761;20;3503388;-46
2023/04/23 11:08:03;;;;;;;;;7.67;7.67;;;;;24.46;23.26;99308.03;6308751;20;2749268;-48
2023/04/23 11:10:59;;;;;;;;;10.67;9.00;;;;;24.00;23.02;99313.78;6312391;20;3497136;-47
2023/04/23 11:13:29;;;;;;;;;8.00;8.00;;;;;23.56;23.94;99300.88;6313702;20;3465886;-48
2023/04/23 11:16:22;;;;;;;;;11.00;11.00;;;;;24.60;25.46;99298.91;6312542;20;3502331;-48
2023/04/23 11:19:10;;;;;;;;;11.33;10.67;;;;;24.35;24.27;99303.03;6308948;20;3515882;-47